Active alerts


No alerts

Webcam Webcam


Visit our other weather sites:

Template documentation
and downloads

And another site


Nearby METAR Reports

  
EBBR - Brussels International Airport, Belgium
Distance from station: W 9mi, 14km
Updated: Oct 18 2017 6:50 am
Clear
Clear  
 Wind from S
Wind: S 6 mph , 9 km/h
Temperature:  64°F , 18°C
Dew Point:  54°F , 12°C
Humidity :  68%
Barometer:  29.91 inHg , 1013 hPa
Summary:  Clear
Visibility:  greater than 7 miles , 10 km
2017/10/18 10:50 EBBR 181050Z 17005KT 140V200 CAVOK 18/12 Q1013 NOSIG
EBBE - Beauvechain (Bevekom), Belgium
Distance from station: SSE 10mi, 17km
Updated: Oct 18 2017 6:55 am
Partly Cloudy
Partly Cloudy  
 Wind from SSW
Wind: SSW 9 mph , 15 km/h
Temperature:  66°F , 19°C
Dew Point:  54°F , 12°C
Humidity :  64%
Barometer:  29.91 inHg , 1013 hPa
Clouds:  Partly Cloudy
Visibility:   6 miles , 10 km
Cloud details:  Partly Cloudy 25000 ft
2017/10/18 10:55 EBBE 181055Z 21008KT 9999 SCT250 19/12 Q1013 BLU BLU
EBDT - Schaffen, Belgium
Distance from station: ENE 18mi, 29km
Updated: Oct 18 2017 6:55 am
Partly Cloudy
Partly Cloudy  
 Wind from S
Wind: S 5 mph , 7 km/h
Temperature:  64°F , 18°C
Dew Point:  54°F , 12°C
Humidity :  68%
Barometer:  29.91 inHg , 1013 hPa
Clouds:  Partly Cloudy
Visibility:   6 miles , 10 km
Cloud details:  Partly Cloudy 25000 ft
2017/10/18 10:55 EBDT 181055Z 18004KT 9999 SCT250 18/12 Q1013 BLU
EBAW - Antwerp/Deurne, Belgium
Distance from station: NNW 23mi, 38km
Updated: Oct 18 2017 6:50 am
Clear
Clear  
 Wind from SSW
Wind: SSW 5 mph , 7 km/h
Temperature:  64°F , 18°C
Dew Point:  54°F , 12°C
Humidity :  68%
Barometer:  29.91 inHg , 1013 hPa
Summary:  Clear
Visibility:  greater than 7 miles , 10 km
2017/10/18 10:50 EBAW 181050Z 20004KT 120V250 CAVOK 18/12 Q1013 NOSIG
EBCI - Charleroi/Gosselies, Belgium
Distance from station: SSW 32mi, 51km
Updated: Oct 18 2017 6:50 am
Clear
Clear  
 Wind from SSW
Wind: SSW 10 mph , 17 km/h
Temperature:  66°F , 19°C
Dew Point:  54°F , 12°C
Humidity :  64%
Barometer:  29.91 inHg , 1013 hPa
Summary:  Clear
Visibility:  greater than 7 miles , 10 km
2017/10/18 10:50 EBCI 181050Z 20009KT 160V220 CAVOK 19/12 Q1013 NOSIG
EBLG - Bierset/Liege, Belgium
Distance from station: ESE 38mi, 60km
Updated: Oct 18 2017 6:50 am
Clear
Clear  
 Wind from SSW
Wind: SSW 12 mph , 19 km/h
Temperature:  66°F , 19°C
Dew Point:  52°F , 11°C
Humidity :  60%
Barometer:  29.94 inHg , 1014 hPa
Summary:  Clear
Visibility:  greater than 7 miles , 10 km
2017/10/18 10:50 EBLG 181050Z 20010KT 160V220 CAVOK 19/11 Q1014 NOSIG

Script developed by  Saratoga-weather.org Adapted for the template by  Weerstation Leuven

You find our weather info also at:


Weather Underground

Citizen Weather Observer Program (CWOP)

Equipment we use:


Weather-station
Davis VP2

Weather-program
Weather Display

Weather-server
My Computer

Provider
My provider

Davis VP2

Weather Display

My Computer

My provider